Observations for EAST MIDLANDS, United Kingdom (EGNX)

EGNX 200750Z 23011KT 9999 SCT016 08/08 Q1030
EGNX 200720Z 24010KT 9999 SCT015 08/07 Q1030
EGNX 200650Z 22010KT 9999 BKN016 08/07 Q1030
EGNX 200620Z 22010KT 9999 SCT015 07/07 Q1029
EGNX 200550Z 23010KT 9999 BKN016 07/07 Q1029
EGNX 200520Z 23010KT 9999 BKN021 08/07 Q1029
EGNX 200450Z 24009KT 9999 BKN022 07/07 Q1029
EGNX 200420Z 24009KT 9999 BKN026 07/07 Q1029
EGNX 200350Z 22009KT 9999 BKN025 07/07 Q1028
EGNX 200320Z 22009KT CAVOK 07/06 Q1028  
EGNX 200250Z 23009KT CAVOK 07/06 Q1029  
EGNX 200220Z 24009KT 9999 FEW028 08/07 Q1029
EGNX 200150Z 23010KT CAVOK 08/07 Q1028  
EGNX 200120Z 24009KT CAVOK 08/07 Q1028  
EGNX 200050Z 21007KT CAVOK 08/07 Q1028  
EGNX 200020Z 22007KT 9999 FEW021 08/07 Q1028
EGNX 192350Z 24006KT CAVOK 08/07 Q1028  
EGNX 192320Z 21007KT 9999 FEW018 08/07 Q1028
EGNX 192250Z 24008KT 9999 BKN016 09/07 Q1028
EGNX 192220Z 23007KT 9999 SCT015 09/07 Q1028
EGNX 192150Z 25010KT 9999 SCT014 10/08 Q1028
EGNX 192120Z 24008KT 9999 SCT022 10/07 Q1027
EGNX 192050Z 26013KT 9999 BKN018 10/07 Q1027
EGNX 192020Z 23009KT 9999 BKN020 10/07 Q1027
EGNX 191920Z 26008KT 9999 BKN023 10/07 Q1027
EGNX 191850Z 26008KT 9999 BKN027 11/07 Q1027
EGNX 191820Z 27009KT 9999 BKN031 11/07 Q1026
EGNX 191750Z 24009KT 9999 SCT029 12/07 Q1026
EGNX 191720Z 23010KT 9999 BKN034 12/07 Q1026
EGNX 191650Z 23009KT 9999 SCT035 12/08 Q1025
EGNX 191620Z 24012KT 9999 SCT023 12/07 Q1025
EGNX 191550Z 21010KT 9999 BKN023 12/08 Q1025
EGNX 191520Z 22011KT 9999 BKN024 12/07 Q1025
EGNX 191450Z 23010KT 9999 BKN026 12/07 Q1025
EGNX 191420Z 25012KT 9999 BKN027 12/07 Q1025
EGNX 191350Z 24010KT 9999 BKN026 12/07 Q1025
EGNX 191320Z 24010KT 9999 BKN026 11/07 Q1026
EGNX 191250Z 24010KT 9999 BKN029 11/07 Q1026
EGNX 191220Z 25009KT 9999 SCT018 BKN033 12/08 Q1026 
EGNX 191150Z 25009KT 9999 SCT016 BKN036 11/08 Q1026 
EGNX 191120Z 24011KT 9999 SCT016 BKN037 11/08 Q1026 
EGNX 191050Z 22008KT 9999 BKN017 11/07 Q1026
EGNX 191020Z 23009KT 9999 BKN016 11/07 Q1026
EGNX 190950Z 22010KT 9999 SCT017 10/08 Q1026
EGNX 190920Z 23008KT 9999 FEW021 09/08 Q1025
EGNX 190850Z 23007KT 9999 FEW018 09/09 Q1025
EGNX 190820Z 24007KT 9999 FEW020 09/09 Q1025
EGNX 190720Z 24007KT 9999 BKN023 07/07 Q1025